FLMF

Details ICAO FLMF (MFU)
Name MFUWE
Region Zambia
Timezone Africa/Lusaka (UTC+2.0)
Plans Departing 1
Arriving 0
Stats Elevation 1,853 ft / 565 m (AMSL)
Location -13.258879° 31.936581°
Runways 1
Magnetic Variation 4.307° W
Sunrise 2017-12-13 03:20:57 UTC / 2017-12-13 05:20:57 Local
Sunset 2017-12-13 16:14:43 UTC / 2017-12-13 18:14:43 Local
Advertisement - Login to hide

Runways

ID Width Length Bearing (true) Bearing (mag) Surface Threshold Offset Overrun Length
09 98 ft / 30 m 7,202 ft / 2,195 m 82.56° 86.87° Asphalt 0 ft / 0 m 520 ft / 159 m
27 98 ft / 30 m 7,202 ft / 2,195 m 262.55° 266.86° Asphalt 0 ft / 0 m 0 ft / 0 m

Map

Weather


0- 5 10 15 20 25 30 35+ Temperature / ° C

Clouds and Precipitation
Forecast for 2017-12-13 12:00 UTC. Updated 2 hours ago

Ground ~20,000 ft ~40,000 ft Winds

METAR

Not found

TAF

TAF FLMF 130400Z 1306/1412 12005KT 9999 SCT020 TEMPO 1312/1318 8000 -TSRA FEW025CB BKN030 PROB30 TEMPO 1406/1412 7000 -RA BKN080

Frequencies

Tower 118.30 MHz TWR
Approach 120.70 MHz APP
Warning: Do not use this data for real-world aviation or navigation. No guarantee of current accuracy is given.